createdAt,value
2023-05-08T00:01:30.541Z,43.98
2023-05-08T00:03:57.648Z,46.83
2023-05-08T00:06:24.507Z,46.61
2023-05-08T00:08:51.832Z,44.99
2023-05-08T00:11:18.713Z,44.21
2023-05-08T00:13:45.514Z,44.00
2023-05-08T00:16:13.063Z,43.74
2023-05-08T00:18:40.320Z,45.02
2023-05-08T00:21:07.149Z,46.75
2023-05-08T00:23:34.131Z,45.14
2023-05-08T00:26:01.059Z,44.60
2023-05-08T00:28:27.914Z,44.37
2023-05-08T00:30:54.782Z,44.14
2023-05-08T00:33:21.700Z,43.70
2023-05-08T00:35:48.513Z,43.20
2023-05-08T00:38:15.831Z,42.86
2023-05-08T00:40:42.958Z,42.97
2023-05-08T00:43:09.663Z,43.78
2023-05-08T00:45:37.364Z,43.32
2023-05-08T00:48:04.490Z,43.30
2023-05-08T00:50:31.669Z,44.21
2023-05-08T00:52:58.561Z,44.04
2023-05-08T00:55:25.324Z,43.63
2023-05-08T00:57:52.303Z,43.35
2023-05-08T01:00:19.231Z,43.44
2023-05-08T01:02:46.799Z,44.29
2023-05-08T01:05:13.851Z,43.72
2023-05-08T01:07:40.839Z,43.40
2023-05-08T01:10:08.345Z,42.79
2023-05-08T01:13:08.729Z,42.30
2023-05-08T01:15:43.262Z,43.25
2023-05-08T01:18:36.476Z,44.69
2023-05-08T01:21:09.883Z,45.03
2023-05-08T01:23:55.413Z,44.68
2023-05-08T01:26:34.419Z,44.31
2023-05-08T01:29:07.141Z,44.18
2023-05-08T01:31:50.339Z,44.37
2023-05-08T01:34:27.114Z,44.27
2023-05-08T01:37:07.898Z,43.80
2023-05-08T01:39:56.884Z,43.40
2023-05-08T01:42:24.094Z,43.28
2023-05-08T01:45:01.205Z,42.72
2023-05-08T01:47:29.775Z,42.42
2023-05-08T01:50:15.365Z,42.59
2023-05-08T01:52:48.297Z,42.48
2023-05-08T01:55:25.539Z,42.54
2023-05-08T01:57:54.285Z,42.35
2023-05-08T02:00:21.771Z,43.18
2023-05-08T02:02:49.337Z,43.25
2023-05-08T02:05:16.305Z,42.99
2023-05-08T02:07:46.296Z,42.85
2023-05-08T02:10:13.282Z,42.84
2023-05-08T02:12:40.427Z,43.09
2023-05-08T02:15:07.961Z,45.10
2023-05-08T02:17:34.821Z,43.40
2023-05-08T02:20:01.735Z,43.46
2023-05-08T02:22:29.518Z,44.25
2023-05-08T02:24:56.460Z,43.91
2023-05-08T02:27:27.078Z,43.63
2023-05-08T02:29:54.369Z,43.37
2023-05-08T02:32:21.647Z,43.35
2023-05-08T02:35:01.969Z,43.29
2023-05-08T02:37:30.517Z,43.09
2023-05-08T02:39:57.361Z,43.07
2023-05-08T02:42:24.462Z,43.04
2023-05-08T02:44:51.358Z,42.99
2023-05-08T02:47:29.548Z,43.12
2023-05-08T02:50:04.990Z,43.02
2023-05-08T02:52:34.819Z,43.04
2023-05-08T02:55:36.356Z,42.98
2023-05-08T02:58:12.558Z,43.80
2023-05-08T03:00:44.216Z,46.72
2023-05-08T03:03:15.958Z,46.09
2023-05-08T03:05:45.855Z,45.84
2023-05-08T03:08:19.148Z,47.25
2023-05-08T03:10:46.809Z,46.35
2023-05-08T03:13:13.682Z,45.95
2023-05-08T03:16:13.007Z,45.43
2023-05-08T03:19:00.860Z,45.93
2023-05-08T03:21:28.777Z,46.96
2023-05-08T03:23:57.029Z,46.95
2023-05-08T03:26:24.034Z,46.53
2023-05-08T03:28:51.434Z,48.17
2023-05-08T03:31:21.231Z,47.57
2023-05-08T03:33:50.278Z,46.08
2023-05-08T03:36:17.134Z,45.41
2023-05-08T03:38:44.226Z,45.21
2023-05-08T03:41:11.858Z,45.88
2023-05-08T03:43:38.726Z,47.18
2023-05-08T03:46:08.505Z,46.52
2023-05-08T03:48:36.054Z,46.25
2023-05-08T03:51:03.563Z,46.55
2023-05-08T03:53:33.065Z,48.44
2023-05-08T03:56:00.615Z,47.63
2023-05-08T03:58:42.649Z,47.72
2023-05-08T04:01:24.874Z,47.08
2023-05-08T04:04:01.883Z,46.35
2023-05-08T04:06:48.758Z,45.96
2023-05-08T04:09:28.446Z,48.65
2023-05-08T04:12:09.209Z,47.67
2023-05-08T04:14:43.149Z,46.69
2023-05-08T04:17:10.999Z,46.35
2023-05-08T04:19:39.487Z,46.18
2023-05-08T04:22:07.212Z,47.92
2023-05-08T04:24:35.491Z,47.16
2023-05-08T04:27:02.472Z,46.96
2023-05-08T04:29:29.974Z,46.42
2023-05-08T04:31:56.800Z,45.94
2023-05-08T04:34:23.990Z,45.31
2023-05-08T04:36:50.961Z,44.60
2023-05-08T04:39:19.278Z,44.65
2023-05-08T04:41:48.291Z,44.58
2023-05-08T04:44:15.310Z,44.44
2023-05-08T04:46:42.348Z,44.17
2023-05-08T04:49:09.538Z,43.84
2023-05-08T04:51:36.673Z,43.79
2023-05-08T04:54:03.477Z,43.40
2023-05-08T04:56:31.425Z,42.98
2023-05-08T04:58:58.219Z,42.84
2023-05-08T05:01:25.457Z,41.62
2023-05-08T05:03:52.617Z,40.34
2023-05-08T05:06:20.325Z,40.22
2023-05-08T05:08:47.504Z,40.11
2023-05-08T05:11:15.145Z,39.77
2023-05-08T05:13:42.653Z,38.61
2023-05-08T05:16:09.795Z,38.31
2023-05-08T05:18:37.437Z,37.86
2023-05-08T05:21:04.216Z,37.13
2023-05-08T05:23:31.623Z,36.85
2023-05-08T05:25:58.659Z,36.94
2023-05-08T05:28:27.139Z,37.55
2023-05-08T05:31:12.359Z,37.28
2023-05-08T05:33:40.034Z,36.96
2023-05-08T05:36:07.256Z,36.37
2023-05-08T05:38:34.567Z,36.74
2023-05-08T05:41:01.508Z,36.16
2023-05-08T05:43:28.783Z,36.68
2023-05-08T05:46:02.773Z,36.39
2023-05-08T05:48:29.813Z,35.61
2023-05-08T05:50:56.751Z,35.31
2023-05-08T05:53:23.919Z,34.71
2023-05-08T05:55:50.739Z,35.21
2023-05-08T05:58:18.127Z,37.68
2023-05-08T06:00:47.113Z,37.85
2023-05-08T06:03:14.273Z,37.71
2023-05-08T06:05:42.737Z,37.62
2023-05-08T06:08:10.784Z,35.48
2023-05-08T06:10:37.800Z,34.87
2023-05-08T06:13:05.004Z,35.17
2023-05-08T06:15:33.364Z,36.47
2023-05-08T06:18:00.246Z,36.96
2023-05-08T06:20:27.358Z,34.92
2023-05-08T06:22:54.264Z,34.64
2023-05-08T06:25:21.126Z,34.93
2023-05-08T06:27:47.981Z,35.45
2023-05-08T06:30:14.940Z,34.80
2023-05-08T06:32:42.838Z,34.90
2023-05-08T06:35:10.186Z,34.51
2023-05-08T06:37:37.460Z,36.91
2023-05-08T06:40:12.324Z,37.74
2023-05-08T06:42:41.722Z,37.71
2023-05-08T06:45:09.008Z,35.60
2023-05-08T06:47:36.007Z,34.85
2023-05-08T06:50:03.903Z,34.63
2023-05-08T06:52:32.090Z,34.83
2023-05-08T06:54:58.918Z,36.58
2023-05-08T06:57:26.678Z,36.61
2023-05-08T06:59:53.692Z,33.74
2023-05-08T07:02:20.581Z,32.95
2023-05-08T07:04:47.462Z,32.50
2023-05-08T07:07:14.715Z,32.70
2023-05-08T07:09:41.570Z,32.10
2023-05-08T07:12:08.912Z,34.58
2023-05-08T07:14:36.297Z,34.62
2023-05-08T07:17:07.090Z,34.83
2023-05-08T07:19:37.593Z,34.76
2023-05-08T07:22:05.051Z,35.76
2023-05-08T07:24:32.437Z,35.38
2023-05-08T07:26:59.336Z,35.00
2023-05-08T07:29:26.502Z,35.62
2023-05-08T07:31:53.454Z,35.94
2023-05-08T07:34:20.250Z,36.07
2023-05-08T07:36:47.026Z,33.18
2023-05-08T07:39:13.771Z,32.88
2023-05-08T07:41:40.861Z,33.13
2023-05-08T07:44:08.078Z,32.95
2023-05-08T07:46:35.207Z,32.09
2023-05-08T07:49:02.280Z,31.72
2023-05-08T07:51:29.306Z,31.90
2023-05-08T07:53:56.086Z,31.01
2023-05-08T07:56:22.956Z,30.29
2023-05-08T07:58:49.929Z,30.31
2023-05-08T08:01:17.583Z,30.41
2023-05-08T08:03:45.491Z,31.30
2023-05-08T08:06:12.528Z,30.56
2023-05-08T08:08:39.949Z,30.15
2023-05-08T08:11:08.001Z,31.30
2023-05-08T08:13:34.968Z,31.92
2023-05-08T08:16:03.654Z,30.92
2023-05-08T08:18:34.591Z,30.39
2023-05-08T08:21:04.633Z,29.77
2023-05-08T08:23:32.374Z,30.10
2023-05-08T08:25:59.313Z,31.01
2023-05-08T08:28:26.092Z,29.69
2023-05-08T08:30:52.813Z,29.24
2023-05-08T08:33:20.083Z,28.97
2023-05-08T08:35:47.066Z,29.03
2023-05-08T08:38:14.186Z,29.02
2023-05-08T08:40:41.192Z,31.04
2023-05-08T08:43:09.269Z,32.29
2023-05-08T08:45:36.928Z,31.00
2023-05-08T08:48:04.182Z,31.84
2023-05-08T08:50:34.700Z,32.31
2023-05-08T08:53:11.894Z,31.79
2023-05-08T08:55:44.664Z,32.29
2023-05-08T08:58:16.233Z,32.33
2023-05-08T09:00:43.191Z,32.90
2023-05-08T09:03:10.095Z,33.37
2023-05-08T09:05:38.156Z,32.80
2023-05-08T09:08:06.767Z,31.82
2023-05-08T09:10:34.287Z,30.59
2023-05-08T09:13:01.636Z,30.12
2023-05-08T09:15:29.235Z,31.60
2023-05-08T09:17:56.193Z,32.09
2023-05-08T09:20:23.283Z,30.77
2023-05-08T09:22:50.382Z,31.79
2023-05-08T09:25:18.406Z,31.50
2023-05-08T09:27:45.375Z,31.28
2023-05-08T09:30:13.927Z,28.43
2023-05-08T09:32:42.847Z,28.72
2023-05-08T09:35:10.054Z,28.50
2023-05-08T09:37:41.323Z,28.54
2023-05-08T09:40:21.978Z,28.43
2023-05-08T09:42:49.680Z,27.51
2023-05-08T09:45:27.767Z,27.45
2023-05-08T09:47:55.210Z,27.21
2023-05-08T09:50:22.395Z,26.95
2023-05-08T09:52:50.202Z,27.21
2023-05-08T09:55:17.714Z,27.08
2023-05-08T09:57:58.551Z,25.99
2023-05-08T10:00:26.664Z,28.48
2023-05-08T10:03:02.852Z,29.63
2023-05-08T10:05:32.370Z,30.11
2023-05-08T10:08:17.568Z,30.48
2023-05-08T10:10:44.543Z,29.25
2023-05-08T10:13:11.490Z,29.99
2023-05-08T10:15:38.589Z,30.38
2023-05-08T10:18:06.603Z,30.49
2023-05-08T10:20:35.029Z,30.32
2023-05-08T10:23:02.627Z,31.10
2023-05-08T10:25:32.063Z,30.45
2023-05-08T10:28:23.740Z,30.20
2023-05-08T10:30:50.531Z,30.80
2023-05-08T10:33:20.256Z,30.73
2023-05-08T10:35:47.012Z,29.93
2023-05-08T10:38:14.417Z,30.55
2023-05-08T10:40:41.265Z,30.34
2023-05-08T10:43:09.168Z,29.49
2023-05-08T10:45:36.055Z,29.99
2023-05-08T10:48:40.815Z,29.58
2023-05-08T10:51:16.055Z,29.22
2023-05-08T10:53:50.536Z,29.35
2023-05-08T10:56:17.301Z,28.66
2023-05-08T10:58:44.098Z,27.05
2023-05-08T11:01:11.357Z,25.60
2023-05-08T11:03:42.869Z,25.05
2023-05-08T11:06:10.108Z,25.18
2023-05-08T11:08:50.664Z,24.32
2023-05-08T11:11:24.422Z,23.94
2023-05-08T11:13:59.998Z,23.86
2023-05-08T11:17:01.120Z,24.09
2023-05-08T11:19:28.388Z,24.34
2023-05-08T11:22:11.770Z,27.63
2023-05-08T11:24:40.160Z,29.12
2023-05-08T11:27:07.361Z,29.33
2023-05-08T11:29:35.611Z,29.46
2023-05-08T11:32:02.437Z,29.84
2023-05-08T11:34:41.551Z,30.16
2023-05-08T11:37:09.392Z,29.67
2023-05-08T11:39:36.518Z,29.67
2023-05-08T11:42:32.955Z,30.01
2023-05-08T11:45:07.797Z,29.59
2023-05-08T11:47:42.154Z,29.78
2023-05-08T11:50:10.252Z,29.80
2023-05-08T11:52:39.146Z,30.07
2023-05-08T11:55:08.000Z,29.93
2023-05-08T11:57:35.175Z,29.32
2023-05-08T12:00:06.185Z,28.70
2023-05-08T12:02:42.556Z,29.54
2023-05-08T12:05:10.380Z,29.35
2023-05-08T12:07:47.061Z,29.66
2023-05-08T12:10:15.075Z,29.58
2023-05-08T12:12:43.010Z,29.64
2023-05-08T12:15:14.375Z,29.69
2023-05-08T12:17:41.827Z,29.31
2023-05-08T12:20:13.834Z,29.64
2023-05-08T12:22:41.254Z,30.04
2023-05-08T12:25:08.887Z,27.91
2023-05-08T12:27:37.129Z,26.76
2023-05-08T12:30:08.617Z,25.97
2023-05-08T12:32:38.428Z,26.34
2023-05-08T12:35:06.540Z,28.74
2023-05-08T12:37:34.427Z,28.08
2023-05-08T12:40:01.184Z,28.23
2023-05-08T12:42:48.365Z,27.82
2023-05-08T12:45:19.140Z,28.62
2023-05-08T12:47:47.930Z,27.70
2023-05-08T12:50:16.022Z,24.85
2023-05-08T12:52:43.563Z,23.96
2023-05-08T12:55:20.949Z,23.81
2023-05-08T12:57:58.393Z,24.85
2023-05-08T13:00:25.278Z,25.25
2023-05-08T13:02:55.669Z,25.62
2023-05-08T13:05:22.873Z,25.82
2023-05-08T13:07:50.779Z,26.40
2023-05-08T13:10:19.648Z,27.77
2023-05-08T13:12:47.767Z,26.44
2023-05-08T13:15:14.714Z,26.12
2023-05-08T13:17:42.089Z,25.93
2023-05-08T13:20:10.547Z,25.38
2023-05-08T13:22:38.063Z,25.14
2023-05-08T13:25:06.261Z,25.17
2023-05-08T13:27:33.353Z,25.23
2023-05-08T13:30:00.134Z,25.23
2023-05-08T13:32:26.807Z,25.26
2023-05-08T13:34:56.387Z,25.48
2023-05-08T13:37:26.268Z,25.37
2023-05-08T13:39:53.086Z,27.31
2023-05-08T13:42:19.813Z,28.58
2023-05-08T13:44:46.628Z,27.24
2023-05-08T13:47:13.493Z,26.70
2023-05-08T13:49:40.201Z,26.32
2023-05-08T13:52:07.078Z,25.85
2023-05-08T13:54:33.919Z,24.99
2023-05-08T13:57:02.040Z,24.45
2023-05-08T13:59:30.653Z,23.56
2023-05-08T14:01:57.562Z,23.48
2023-05-08T14:04:24.907Z,23.48
2023-05-08T14:06:51.655Z,23.54
2023-05-08T14:09:18.561Z,24.50
2023-05-08T14:11:45.419Z,24.91
2023-05-08T14:14:12.659Z,25.61
2023-05-08T14:16:39.569Z,26.23
2023-05-08T14:19:06.354Z,26.81
2023-05-08T14:21:34.261Z,28.65
2023-05-08T14:24:01.028Z,27.56
2023-05-08T14:26:27.790Z,27.28
2023-05-08T14:28:54.535Z,27.01
2023-05-08T14:31:21.455Z,26.96
2023-05-08T14:33:48.303Z,26.53
2023-05-08T14:36:15.333Z,26.19
2023-05-08T14:38:42.069Z,25.91
2023-05-08T14:41:08.953Z,25.47
2023-05-08T14:43:36.048Z,25.21
2023-05-08T14:46:02.901Z,25.41
2023-05-08T14:48:30.188Z,25.74
2023-05-08T14:50:57.336Z,26.15
2023-05-08T14:53:24.468Z,26.46
2023-05-08T14:55:51.602Z,26.34
2023-05-08T14:58:19.155Z,26.62
2023-05-08T15:00:46.182Z,29.18
2023-05-08T15:03:13.236Z,30.31
2023-05-08T15:05:40.040Z,30.95
2023-05-08T15:08:06.984Z,31.35
2023-05-08T15:10:33.824Z,31.36
2023-05-08T15:13:00.831Z,31.30
2023-05-08T15:15:28.438Z,31.26
2023-05-08T15:17:55.276Z,31.39
2023-05-08T15:20:22.512Z,31.35
2023-05-08T15:22:49.369Z,30.04
2023-05-08T15:25:16.320Z,29.90
2023-05-08T15:27:43.401Z,28.85
2023-05-08T15:30:10.611Z,28.55
2023-05-08T15:32:38.765Z,28.25
2023-05-08T15:35:06.236Z,28.09
2023-05-08T15:37:33.747Z,27.76
2023-05-08T15:40:00.575Z,27.78
2023-05-08T15:42:27.367Z,27.77
2023-05-08T15:44:57.565Z,27.60
2023-05-08T15:47:26.556Z,27.47
2023-05-08T15:49:53.615Z,27.42
2023-05-08T15:52:20.697Z,27.24
2023-05-08T15:54:48.466Z,27.81
2023-05-08T15:57:15.185Z,28.03
2023-05-08T15:59:41.952Z,27.77
2023-05-08T16:02:08.867Z,27.61
2023-05-08T16:04:36.493Z,27.44
2023-05-08T16:07:03.936Z,27.17
2023-05-08T16:09:31.113Z,27.17
2023-05-08T16:11:57.944Z,26.99
2023-05-08T16:14:24.681Z,26.98
2023-05-08T16:16:51.761Z,27.02
2023-05-08T16:19:18.447Z,27.22
2023-05-08T16:21:46.923Z,29.68
2023-05-08T16:24:13.697Z,33.61
2023-05-08T16:26:40.727Z,30.34
2023-05-08T16:29:07.616Z,26.46
2023-05-08T16:31:35.538Z,26.48
2023-05-08T16:34:02.368Z,26.07
2023-05-08T16:36:29.338Z,30.76
2023-05-08T16:38:56.197Z,32.09
2023-05-08T16:41:22.920Z,29.59
2023-05-08T16:43:49.705Z,29.05
2023-05-08T16:46:18.897Z,29.20
2023-05-08T16:48:50.592Z,28.51
2023-05-08T16:51:17.479Z,28.05
2023-05-08T16:53:44.224Z,27.48
2023-05-08T16:56:11.144Z,27.67
2023-05-08T16:58:37.987Z,27.56
2023-05-08T17:01:05.028Z,31.10
2023-05-08T17:03:32.308Z,35.07
2023-05-08T17:05:59.179Z,36.15
2023-05-08T17:08:26.133Z,34.81
2023-05-08T17:10:53.596Z,33.16
2023-05-08T17:13:20.484Z,32.64
2023-05-08T17:15:47.398Z,32.17
2023-05-08T17:18:14.399Z,31.67
2023-05-08T17:20:41.942Z,31.55
2023-05-08T17:23:09.189Z,31.25
2023-05-08T17:25:36.233Z,31.31
2023-05-08T17:28:03.620Z,30.88
2023-05-08T17:30:30.925Z,30.73
2023-05-08T17:32:57.834Z,30.52
2023-05-08T17:35:24.647Z,30.00
2023-05-08T17:37:51.444Z,30.10
2023-05-08T17:40:18.407Z,29.88
2023-05-08T17:42:45.318Z,29.85
2023-05-08T17:45:13.090Z,29.17
2023-05-08T17:47:40.307Z,28.21
2023-05-08T17:50:08.872Z,27.85
2023-05-08T17:52:36.311Z,27.67
2023-05-08T17:55:03.247Z,27.61
2023-05-08T17:57:30.508Z,27.57
2023-05-08T17:59:57.478Z,27.42
2023-05-08T18:02:24.376Z,27.46
2023-05-08T18:04:51.137Z,27.94
2023-05-08T18:07:17.977Z,28.50
2023-05-08T18:09:44.784Z,28.69
2023-05-08T18:12:11.594Z,29.15
2023-05-08T18:14:38.466Z,29.56
2023-05-08T18:17:06.852Z,29.75
2023-05-08T18:19:34.079Z,29.79
2023-05-08T18:22:00.916Z,29.70
2023-05-08T18:24:28.585Z,29.86
2023-05-08T18:26:55.493Z,29.66
2023-05-08T18:29:22.529Z,29.91
2023-05-08T18:31:49.788Z,29.79
2023-05-08T18:34:16.730Z,29.98
2023-05-08T18:36:43.543Z,30.36
2023-05-08T18:39:10.578Z,30.29
2023-05-08T18:41:37.760Z,30.32
2023-05-08T18:44:05.256Z,30.29
2023-05-08T18:46:32.378Z,30.52
2023-05-08T18:48:59.114Z,30.62
2023-05-08T18:51:26.018Z,30.48
2023-05-08T18:53:53.449Z,30.70
2023-05-08T18:56:21.676Z,30.61
2023-05-08T18:58:48.613Z,30.55
2023-05-08T19:01:19.322Z,30.36
2023-05-08T19:03:47.743Z,30.30
2023-05-08T19:06:14.860Z,29.99
2023-05-08T19:08:42.161Z,29.83
2023-05-08T19:11:10.253Z,29.90
2023-05-08T19:13:38.434Z,29.96
2023-05-08T19:16:05.669Z,29.94
2023-05-08T19:18:32.838Z,29.79
2023-05-08T19:21:00.949Z,29.88
2023-05-08T19:23:27.999Z,29.86
2023-05-08T19:25:54.875Z,29.66
2023-05-08T19:28:21.735Z,29.39
2023-05-08T19:30:48.724Z,29.36
2023-05-08T19:33:19.810Z,29.47
2023-05-08T19:35:47.251Z,29.33
2023-05-08T19:38:14.886Z,29.54
2023-05-08T19:40:55.784Z,29.55
2023-05-08T19:43:25.592Z,29.37
2023-05-08T19:45:52.441Z,29.28
2023-05-08T19:48:19.834Z,29.09
2023-05-08T19:50:47.009Z,28.81
2023-05-08T19:53:13.844Z,28.79
2023-05-08T19:55:40.811Z,28.71
2023-05-08T19:58:07.549Z,28.52
2023-05-08T20:00:35.277Z,28.75
2023-05-08T20:03:02.326Z,28.98
2023-05-08T20:05:29.710Z,36.81
2023-05-08T20:07:56.952Z,40.24
2023-05-08T20:10:24.314Z,41.63
2023-05-08T20:12:52.145Z,42.47
2023-05-08T20:15:19.325Z,41.09
2023-05-08T20:17:46.465Z,40.56
2023-05-08T20:20:13.626Z,40.57
2023-05-08T20:22:41.072Z,40.51
2023-05-08T20:25:08.232Z,40.57
2023-05-08T20:27:35.380Z,40.31
2023-05-08T20:30:02.507Z,39.97
2023-05-08T20:32:29.729Z,39.39
2023-05-08T20:34:56.668Z,39.00
2023-05-08T20:37:23.387Z,38.97
2023-05-08T20:39:50.411Z,38.58
2023-05-08T20:42:17.760Z,38.62
2023-05-08T20:44:44.890Z,38.43
2023-05-08T20:47:11.858Z,38.07
2023-05-08T20:49:38.695Z,37.87
2023-05-08T20:52:05.657Z,37.99
2023-05-08T20:54:32.890Z,37.94
2023-05-08T20:57:01.437Z,37.81
2023-05-08T20:59:28.269Z,37.56
2023-05-08T21:01:55.265Z,37.47
2023-05-08T21:04:22.241Z,37.41
2023-05-08T21:06:50.661Z,37.66
2023-05-08T21:09:18.947Z,37.96
2023-05-08T21:11:46.166Z,37.95
2023-05-08T21:14:13.061Z,37.99
2023-05-08T21:16:39.935Z,38.05
2023-05-08T21:19:06.944Z,38.07
2023-05-08T21:21:33.888Z,37.69
2023-05-08T21:24:00.803Z,37.83
2023-05-08T21:26:27.577Z,37.58
2023-05-08T21:28:54.347Z,37.48
2023-05-08T21:31:21.885Z,37.51
2023-05-08T21:33:48.816Z,37.43
2023-05-08T21:36:15.872Z,37.41
2023-05-08T21:38:42.838Z,37.40
2023-05-08T21:41:09.778Z,37.42
2023-05-08T21:43:37.131Z,37.37
2023-05-08T21:46:04.632Z,38.86
2023-05-08T21:48:33.051Z,44.47
2023-05-08T21:51:00.079Z,43.68
2023-05-08T21:53:27.014Z,43.94
2023-05-08T21:55:53.729Z,44.66
2023-05-08T21:58:21.301Z,44.14
2023-05-08T22:00:48.146Z,43.56
2023-05-08T22:03:15.251Z,43.91
2023-05-08T22:05:42.128Z,45.28
2023-05-08T22:08:09.054Z,44.63
2023-05-08T22:10:36.157Z,43.92
2023-05-08T22:13:03.287Z,44.97
2023-05-08T22:15:31.065Z,46.19
2023-05-08T22:17:58.728Z,46.25
2023-05-08T22:20:26.158Z,46.44
2023-05-08T22:22:52.974Z,45.61
2023-05-08T22:25:21.098Z,45.16
2023-05-08T22:27:47.946Z,44.81
2023-05-08T22:30:15.319Z,44.73
2023-05-08T22:32:42.820Z,45.13
2023-05-08T22:35:09.899Z,45.48
2023-05-08T22:37:37.284Z,45.22
2023-05-08T22:40:04.984Z,44.91
2023-05-08T22:42:32.137Z,44.38
2023-05-08T22:44:59.109Z,45.99
2023-05-08T22:47:25.949Z,47.89
2023-05-08T22:49:53.253Z,51.59
2023-05-08T22:52:20.142Z,50.99
2023-05-08T22:54:46.992Z,50.60
2023-05-08T22:57:14.071Z,50.64
2023-05-08T22:59:41.027Z,53.89
2023-05-08T23:02:07.938Z,56.40
2023-05-08T23:04:35.673Z,55.49
2023-05-08T23:07:03.124Z,54.28
2023-05-08T23:09:30.941Z,57.47
2023-05-08T23:11:57.852Z,57.32
2023-05-08T23:14:24.696Z,54.29
2023-05-08T23:16:51.671Z,52.90
2023-05-08T23:19:18.684Z,51.62
2023-05-08T23:21:45.633Z,50.82
2023-05-08T23:24:12.701Z,50.73
2023-05-08T23:26:42.059Z,50.60
2023-05-08T23:29:08.873Z,49.92
2023-05-08T23:31:36.148Z,49.88
2023-05-08T23:34:03.384Z,49.77
2023-05-08T23:36:31.605Z,49.33
2023-05-08T23:38:58.380Z,54.76
2023-05-08T23:41:25.626Z,58.06
2023-05-08T23:43:52.413Z,56.16
2023-05-08T23:46:19.344Z,54.49
2023-05-08T23:48:46.162Z,54.51
2023-05-08T23:51:12.954Z,54.23
2023-05-08T23:53:39.936Z,54.90
2023-05-08T23:56:06.965Z,55.95
2023-05-08T23:58:34.506Z,56.77
